Terminal Aerodrome Forecast
Issued by NWS

Home | Current Version | Previous Version | Text Only | Print | Product List | Glossary On
Versions: 1 2 3 4 5 6 7 8 9 10 11 12
053
FTPA31 PHFO 230529
TAFHMK
TAF
PHMK 230529Z 2306/2406 02012G19KT P6SM VCSH FEW025 SCT045
     FM232000 03020G30KT P6SM FEW025 SCT045
     FM240400 03014G22KT P6SM VCSH FEW025 SCT045=

USA.gov is the U.S. government's official web portal to all federal, state and local government web resources and services.